createdAt,value
2019-04-03T00:01:05.708Z,50.90
2019-04-03T00:03:32.590Z,50.40
2019-04-03T00:06:00.287Z,50.00
2019-04-03T00:08:26.667Z,50.50
2019-04-03T00:10:53.110Z,50.30
2019-04-03T00:13:19.559Z,50.70
2019-04-03T00:15:45.991Z,50.90
2019-04-03T00:18:12.410Z,52.50
2019-04-03T00:20:38.839Z,51.50
2019-04-03T00:23:05.360Z,51.70
2019-04-03T00:25:31.797Z,52.70
2019-04-03T00:27:58.231Z,51.90
2019-04-03T00:30:24.742Z,52.30
2019-04-03T00:32:53.173Z,52.20
2019-04-03T00:35:19.277Z,52.00
2019-04-03T00:37:45.677Z,52.00
2019-04-03T00:40:12.305Z,51.90
2019-04-03T00:42:38.715Z,52.40
2019-04-03T00:45:06.715Z,52.60
2019-04-03T00:47:33.146Z,51.50
2019-04-03T00:49:59.599Z,53.00
2019-04-03T00:52:27.520Z,52.90
2019-04-03T00:54:54.797Z,52.70
2019-04-03T00:57:22.391Z,53.10
2019-04-03T00:59:48.801Z,53.80
2019-04-03T01:02:16.510Z,52.60
2019-04-03T01:04:43.228Z,53.10
2019-04-03T01:07:09.676Z,52.10
2019-04-03T01:09:36.114Z,52.40
2019-04-03T01:12:03.657Z,52.30
2019-04-03T01:14:31.620Z,52.90
2019-04-03T01:16:58.470Z,52.30
2019-04-03T01:19:24.874Z,52.40
2019-04-03T01:21:51.266Z,53.20
2019-04-03T01:24:17.680Z,52.20
2019-04-03T01:26:44.078Z,52.60
2019-04-03T01:29:10.649Z,53.80
2019-04-03T01:31:38.650Z,54.20
2019-04-03T01:34:05.052Z,54.60
2019-04-03T01:36:31.474Z,52.70
2019-04-03T01:38:57.844Z,52.70
2019-04-03T01:41:24.202Z,53.60
2019-04-03T01:43:53.151Z,53.50
2019-04-03T01:46:18.789Z,52.90
2019-04-03T01:48:45.230Z,53.90
2019-04-03T01:51:11.768Z,54.50
2019-04-03T01:53:38.288Z,54.50
2019-04-03T01:56:05.284Z,53.40
2019-04-03T01:58:31.737Z,54.50
2019-04-03T02:00:58.197Z,55.70
2019-04-03T02:03:24.624Z,54.80
2019-04-03T02:05:51.089Z,55.00
2019-04-03T02:08:17.528Z,54.00
2019-04-03T02:10:43.963Z,53.90
2019-04-03T02:13:10.459Z,54.50
2019-04-03T02:15:36.798Z,55.40
2019-04-03T02:18:04.194Z,55.10
2019-04-03T02:20:30.754Z,54.10
2019-04-03T02:22:59.301Z,54.30
2019-04-03T02:25:25.562Z,54.20
2019-04-03T02:27:51.966Z,55.00
2019-04-03T02:30:18.561Z,55.10
2019-04-03T02:32:44.925Z,56.20
2019-04-03T02:35:11.500Z,56.30
2019-04-03T02:37:37.849Z,56.50
2019-04-03T02:40:05.464Z,56.30
2019-04-03T02:42:31.914Z,55.70
2019-04-03T02:44:58.323Z,57.60
2019-04-03T02:47:25.203Z,55.70
2019-04-03T02:49:51.558Z,56.30
2019-04-03T02:52:18.020Z,57.20
2019-04-03T02:54:45.605Z,56.10
2019-04-03T02:57:11.964Z,56.70
2019-04-03T02:59:38.377Z,57.30
2019-04-03T03:02:04.917Z,56.80
2019-04-03T03:04:32.277Z,57.50
2019-04-03T03:07:03.334Z,57.50
2019-04-03T03:09:29.791Z,56.90
2019-04-03T03:11:57.729Z,56.80
2019-04-03T03:14:24.308Z,57.80
2019-04-03T03:16:51.190Z,58.00
2019-04-03T03:19:17.868Z,59.20
2019-04-03T03:21:45.462Z,58.10
2019-04-03T03:24:12.279Z,57.80
2019-04-03T03:26:39.366Z,58.10
2019-04-03T03:29:16.147Z,59.90
2019-04-03T03:32:02.548Z,59.90
2019-04-03T03:34:05.302Z,58.60
2019-04-03T03:36:32.718Z,59.30
2019-04-03T03:38:59.642Z,60.00
2019-04-03T03:41:26.774Z,59.90
2019-04-03T03:43:54.329Z,59.40
2019-04-03T03:46:21.422Z,58.70
2019-04-03T03:48:48.196Z,61.00
2019-04-03T03:51:14.906Z,59.90
2019-04-03T03:53:44.559Z,61.10
2019-04-03T03:56:10.601Z,60.80
2019-04-03T03:58:37.283Z,61.40
2019-04-03T04:01:03.719Z,62.20
2019-04-03T04:03:30.743Z,62.00
2019-04-03T04:05:57.145Z,62.40
2019-04-03T04:08:23.526Z,61.70
2019-04-03T04:10:50.631Z,62.30
2019-04-03T04:13:17.004Z,62.30
2019-04-03T04:15:44.909Z,62.70
2019-04-03T04:18:14.203Z,63.20
2019-04-03T04:20:40.152Z,64.80
2019-04-03T04:23:06.535Z,63.80
2019-04-03T04:25:33.255Z,64.70
2019-04-03T04:27:59.616Z,63.70
2019-04-03T04:30:26.025Z,63.70
2019-04-03T04:32:52.446Z,63.70
2019-04-03T04:35:20.639Z,66.60
2019-04-03T04:37:47.059Z,66.70
2019-04-03T04:40:13.686Z,67.10
2019-04-03T04:42:40.130Z,65.30
2019-04-03T04:45:06.533Z,68.10
2019-04-03T04:47:32.928Z,68.70
2019-04-03T04:49:59.336Z,67.70
2019-04-03T04:52:27.490Z,68.50
2019-04-03T04:54:53.990Z,68.20
2019-04-03T04:57:20.407Z,66.20
2019-04-03T04:59:46.854Z,67.00
2019-04-03T05:02:13.278Z,67.80
2019-04-03T05:04:39.693Z,70.90
2019-04-03T05:07:06.175Z,70.80
2019-04-03T05:09:34.614Z,70.30
2019-04-03T05:12:00.878Z,70.70
2019-04-03T05:14:28.608Z,67.00
2019-04-03T05:16:55.824Z,68.70
2019-04-03T05:19:22.870Z,69.90
2019-04-03T05:21:50.682Z,70.60
2019-04-03T05:24:17.633Z,67.30
2019-04-03T05:26:43.995Z,67.90
2019-04-03T05:29:10.733Z,67.10
2019-04-03T05:31:39.024Z,65.30
2019-04-03T05:34:05.630Z,66.60
2019-04-03T05:36:32.062Z,65.40
2019-04-03T05:38:58.490Z,67.70
2019-04-03T05:41:27.450Z,64.70
2019-04-03T05:43:53.200Z,65.20
2019-04-03T05:46:19.950Z,66.30
2019-04-03T05:48:48.019Z,63.90
2019-04-03T05:51:14.727Z,65.00
2019-04-03T05:53:41.217Z,65.20
2019-04-03T05:56:07.649Z,66.60
2019-04-03T05:58:34.210Z,63.00
2019-04-03T06:01:05.383Z,64.30
2019-04-03T06:03:40.485Z,60.70
2019-04-03T06:05:58.026Z,61.10
2019-04-03T06:08:24.832Z,59.10
2019-04-03T06:10:51.269Z,58.10
2019-04-03T06:13:17.755Z,56.80
2019-04-03T06:15:44.213Z,56.60
2019-04-03T06:18:10.662Z,56.00
2019-04-03T06:20:37.018Z,56.70
2019-04-03T06:23:03.406Z,54.30
2019-04-03T06:25:30.744Z,54.00
2019-04-03T06:27:59.049Z,53.00
2019-04-03T06:30:25.899Z,50.00
2019-04-03T06:32:55.076Z,50.90
2019-04-03T06:35:21.856Z,51.10
2019-04-03T06:37:48.252Z,50.90
2019-04-03T06:40:14.849Z,48.90
2019-04-03T06:42:44.097Z,49.60
2019-04-03T06:45:10.309Z,47.90
2019-04-03T06:47:36.861Z,48.90
2019-04-03T06:50:06.678Z,48.10
2019-04-03T06:52:33.195Z,46.20
2019-04-03T06:54:59.598Z,44.90
2019-04-03T06:57:26.009Z,44.00
2019-04-03T06:59:52.440Z,44.60
2019-04-03T07:02:18.935Z,45.50
2019-04-03T07:04:45.473Z,44.80
2019-04-03T07:07:11.804Z,45.50
2019-04-03T07:09:38.287Z,44.20
2019-04-03T07:12:04.661Z,45.00
2019-04-03T07:14:31.105Z,45.30
2019-04-03T07:17:00.205Z,47.00
2019-04-03T07:19:25.742Z,44.80
2019-04-03T07:21:53.024Z,44.60
2019-04-03T07:24:20.418Z,43.50
2019-04-03T07:26:47.201Z,42.70
2019-04-03T07:29:15.799Z,43.70
2019-04-03T07:31:41.865Z,42.10
2019-04-03T07:34:08.328Z,42.40
2019-04-03T07:36:34.772Z,44.00
2019-04-03T07:39:01.212Z,42.20
2019-04-03T07:41:29.568Z,42.30
2019-04-03T07:43:58.117Z,42.90
2019-04-03T07:46:24.215Z,41.70
2019-04-03T07:48:50.643Z,42.10
2019-04-03T07:51:17.133Z,41.90
2019-04-03T07:53:43.518Z,41.40
2019-04-03T07:56:09.896Z,40.70
2019-04-03T07:58:36.384Z,39.00
2019-04-03T08:01:03.118Z,40.90
2019-04-03T08:03:29.601Z,43.10
2019-04-03T08:05:56.798Z,41.00
2019-04-03T08:08:23.490Z,38.80
2019-04-03T08:10:49.888Z,42.10
2019-04-03T08:13:16.353Z,40.50
2019-04-03T08:15:44.509Z,39.80
2019-04-03T08:18:11.252Z,38.80
2019-04-03T08:20:37.690Z,38.90
2019-04-03T08:23:06.179Z,38.10
2019-04-03T08:25:33.490Z,38.60
2019-04-03T08:27:59.931Z,39.20
2019-04-03T08:30:26.492Z,39.40
2019-04-03T08:32:52.880Z,39.00
2019-04-03T08:35:23.082Z,37.10
2019-04-03T08:37:47.604Z,38.30
2019-04-03T08:40:14.123Z,37.60
2019-04-03T08:42:40.668Z,37.20
2019-04-03T08:45:09.352Z,36.40
2019-04-03T08:47:37.639Z,38.90
2019-04-03T08:50:07.561Z,37.10
2019-04-03T08:52:36.281Z,37.20
2019-04-03T08:55:04.086Z,38.30
2019-04-03T08:57:30.565Z,38.00
2019-04-03T08:59:59.606Z,36.90
2019-04-03T09:02:25.258Z,37.80
2019-04-03T09:04:51.817Z,36.10
2019-04-03T09:07:18.278Z,36.60
2019-04-03T09:09:44.679Z,37.70
2019-04-03T09:12:12.012Z,37.60
2019-04-03T09:14:38.574Z,37.30
2019-04-03T09:17:05.275Z,37.40
2019-04-03T09:19:31.850Z,36.80
2019-04-03T09:21:58.682Z,34.80
2019-04-03T09:24:25.361Z,35.00
2019-04-03T09:26:51.970Z,35.70
2019-04-03T09:29:18.782Z,35.70
2019-04-03T09:31:45.665Z,34.90
2019-04-03T09:34:12.165Z,33.90
2019-04-03T09:36:39.671Z,35.00
2019-04-03T09:39:09.552Z,35.30
2019-04-03T09:41:37.542Z,36.00
2019-04-03T09:44:04.157Z,37.30
2019-04-03T09:46:31.569Z,36.90
2019-04-03T09:48:58.389Z,36.80
2019-04-03T09:51:24.798Z,35.10
2019-04-03T09:53:51.399Z,36.40
2019-04-03T09:56:17.839Z,37.40
2019-04-03T09:58:45.364Z,34.50
2019-04-03T10:01:15.633Z,35.20
2019-04-03T10:03:40.382Z,36.70
2019-04-03T10:06:06.938Z,35.10
2019-04-03T10:08:33.352Z,34.30
2019-04-03T10:10:59.810Z,34.40
2019-04-03T10:13:27.157Z,35.00
2019-04-03T10:15:53.765Z,34.10
2019-04-03T10:18:21.970Z,34.40
2019-04-03T10:20:49.518Z,34.20
2019-04-03T10:23:16.325Z,35.10
2019-04-03T10:25:42.754Z,34.60
2019-04-03T10:28:09.321Z,35.50
2019-04-03T10:30:36.247Z,34.40
2019-04-03T10:33:02.603Z,34.10
2019-04-03T10:35:29.035Z,32.90
2019-04-03T10:37:55.453Z,32.40
2019-04-03T10:40:24.127Z,34.00
2019-04-03T10:42:50.522Z,34.30
2019-04-03T10:45:18.252Z,35.80
2019-04-03T10:47:44.908Z,33.80
2019-04-03T10:50:11.683Z,32.80
2019-04-03T10:52:38.249Z,33.90
2019-04-03T10:55:05.837Z,35.70
2019-04-03T10:57:34.749Z,34.00
2019-04-03T11:00:04.547Z,33.20
2019-04-03T11:02:31.139Z,33.70
2019-04-03T11:05:00.077Z,32.60
2019-04-03T11:07:25.837Z,32.00
2019-04-03T11:09:52.288Z,31.90
2019-04-03T11:12:19.040Z,31.90
2019-04-03T11:14:45.515Z,32.60
2019-04-03T11:17:12.048Z,31.90
2019-04-03T11:19:38.746Z,32.40
2019-04-03T11:22:05.237Z,31.40
2019-04-03T11:24:31.770Z,32.60
2019-04-03T11:26:58.285Z,31.90
2019-04-03T11:29:24.986Z,33.30
2019-04-03T11:31:51.505Z,34.20
2019-04-03T11:34:18.538Z,32.90
2019-04-03T11:36:45.327Z,33.30
2019-04-03T11:39:15.185Z,34.40
2019-04-03T11:41:40.290Z,31.90
2019-04-03T11:44:08.254Z,31.00
2019-04-03T11:46:35.445Z,31.70
2019-04-03T11:49:02.313Z,31.60
2019-04-03T11:51:29.552Z,30.90
2019-04-03T11:53:56.708Z,31.90
2019-04-03T11:56:23.118Z,30.30
2019-04-03T11:58:49.963Z,32.20
2019-04-03T12:01:18.601Z,30.90
2019-04-03T12:03:45.256Z,31.40
2019-04-03T12:06:11.729Z,31.70
2019-04-03T12:08:38.221Z,31.90
2019-04-03T12:11:06.112Z,31.50
2019-04-03T12:13:32.903Z,32.10
2019-04-03T12:15:59.470Z,31.00
2019-04-03T12:18:26.237Z,32.40
2019-04-03T12:20:53.494Z,30.60
2019-04-03T12:23:20.273Z,30.80
2019-04-03T12:25:46.902Z,30.00
2019-04-03T12:28:13.493Z,29.40
2019-04-03T12:30:40.341Z,29.00
2019-04-03T12:33:06.823Z,28.90
2019-04-03T12:35:33.216Z,29.90
2019-04-03T12:37:59.665Z,29.30
2019-04-03T12:40:26.126Z,30.00
2019-04-03T12:42:52.555Z,31.40
2019-04-03T12:45:19.416Z,31.50
2019-04-03T12:47:46.023Z,31.50
2019-04-03T12:50:13.968Z,31.80
2019-04-03T12:52:43.385Z,30.80
2019-04-03T12:55:09.731Z,30.50
2019-04-03T12:57:38.893Z,31.20
2019-04-03T13:00:10.583Z,32.40
2019-04-03T13:02:37.974Z,33.00
2019-04-03T13:05:07.750Z,32.50
2019-04-03T13:07:35.956Z,33.40
2019-04-03T13:10:08.017Z,32.20
2019-04-03T13:12:34.994Z,31.20
2019-04-03T13:15:04.301Z,32.60
2019-04-03T13:17:30.157Z,32.90
2019-04-03T13:19:59.315Z,32.40
2019-04-03T13:22:24.870Z,31.90
2019-04-03T13:24:51.638Z,32.40
2019-04-03T13:27:18.121Z,32.70
2019-04-03T13:29:44.811Z,33.40
2019-04-03T13:32:11.302Z,34.20
2019-04-03T13:34:37.796Z,33.50
2019-04-03T13:37:04.256Z,32.80
2019-04-03T13:39:33.109Z,32.00
2019-04-03T13:41:59.355Z,34.90
2019-04-03T13:44:26.898Z,33.10
2019-04-03T13:46:54.239Z,32.90
2019-04-03T13:49:20.693Z,34.00
2019-04-03T13:51:47.487Z,33.50
2019-04-03T13:54:14.105Z,33.40
2019-04-03T13:56:43.139Z,32.60
2019-04-03T13:59:08.870Z,32.90
2019-04-03T14:01:35.193Z,33.00
2019-04-03T14:04:01.666Z,33.10
2019-04-03T14:06:28.058Z,35.10
2019-04-03T14:08:54.467Z,33.90
2019-04-03T14:11:21.243Z,34.80
2019-04-03T14:13:47.638Z,35.00
2019-04-03T14:16:21.525Z,34.70
2019-04-03T14:18:42.360Z,34.90
2019-04-03T14:21:08.893Z,35.60
2019-04-03T14:23:35.984Z,35.30
2019-04-03T14:26:07.072Z,35.10
2019-04-03T14:28:33.371Z,34.60
2019-04-03T14:30:59.648Z,35.90
2019-04-03T14:33:27.175Z,35.20
2019-04-03T14:35:54.981Z,36.30
2019-04-03T14:38:21.659Z,36.70
2019-04-03T14:40:48.481Z,37.00
2019-04-03T14:43:15.460Z,36.70
2019-04-03T14:45:44.468Z,37.60
2019-04-03T14:48:10.130Z,37.40
2019-04-03T14:50:37.726Z,37.60
2019-04-03T14:53:05.252Z,37.10
2019-04-03T14:55:31.981Z,38.70
2019-04-03T14:57:59.766Z,38.90
2019-04-03T15:00:30.632Z,39.10
2019-04-03T15:02:56.194Z,38.30
2019-04-03T15:05:23.011Z,38.30
2019-04-03T15:07:50.723Z,38.40
2019-04-03T15:10:17.936Z,38.50
2019-04-03T15:12:44.539Z,38.40
2019-04-03T15:15:11.594Z,38.40
2019-04-03T15:17:38.728Z,39.20
2019-04-03T15:20:07.114Z,38.90
2019-04-03T15:22:33.765Z,37.60
2019-04-03T15:25:00.477Z,38.40
2019-04-03T15:27:28.610Z,37.10
2019-04-03T15:29:55.695Z,37.80
2019-04-03T15:32:22.257Z,38.70
2019-04-03T15:34:50.616Z,38.10
2019-04-03T15:37:18.588Z,38.70
2019-04-03T15:39:48.135Z,39.10
2019-04-03T15:42:13.731Z,40.40
2019-04-03T15:44:40.251Z,39.80
2019-04-03T15:47:09.264Z,39.80
2019-04-03T15:49:35.577Z,39.30
2019-04-03T15:52:02.091Z,40.00
2019-04-03T15:54:31.482Z,39.20
2019-04-03T15:56:57.178Z,40.50
2019-04-03T15:59:24.091Z,39.30
2019-04-03T16:01:50.673Z,40.40
2019-04-03T16:04:17.236Z,40.10
2019-04-03T16:06:43.880Z,39.70
2019-04-03T16:09:10.551Z,39.80
2019-04-03T16:11:37.102Z,41.20
2019-04-03T16:14:03.747Z,39.60
2019-04-03T16:16:30.431Z,40.30
2019-04-03T16:18:57.270Z,41.30
2019-04-03T16:21:24.426Z,40.50
2019-04-03T16:23:51.505Z,41.40
2019-04-03T16:26:18.240Z,41.90
2019-04-03T16:28:45.200Z,41.10
2019-04-03T16:31:11.659Z,43.00
2019-04-03T16:33:38.090Z,41.70
2019-04-03T16:36:04.499Z,41.40
2019-04-03T16:38:31.347Z,41.70
2019-04-03T16:40:58.092Z,42.00
2019-04-03T16:43:24.985Z,42.30
2019-04-03T16:45:51.647Z,41.90
2019-04-03T16:48:18.904Z,42.00
2019-04-03T16:50:46.447Z,43.10
2019-04-03T16:53:12.909Z,43.10
2019-04-03T16:55:39.307Z,43.30
2019-04-03T16:58:05.720Z,43.60
2019-04-03T17:00:32.527Z,42.50
2019-04-03T17:02:59.072Z,41.90
2019-04-03T17:05:25.587Z,42.30
2019-04-03T17:07:54.359Z,43.40
2019-04-03T17:10:20.268Z,42.10
2019-04-03T17:12:49.548Z,43.10
2019-04-03T17:15:15.561Z,44.10
2019-04-03T17:17:43.127Z,43.50
2019-04-03T17:20:10.651Z,43.60
2019-04-03T17:22:40.941Z,43.20
2019-04-03T17:25:07.924Z,42.80
2019-04-03T17:27:36.048Z,43.20
2019-04-03T17:30:07.202Z,43.50
2019-04-03T17:32:34.131Z,44.10
2019-04-03T17:35:00.566Z,44.00
2019-04-03T17:37:29.690Z,45.60
2019-04-03T17:39:55.302Z,45.60
2019-04-03T17:42:21.765Z,44.30
2019-04-03T17:44:48.127Z,43.90
2019-04-03T17:47:14.563Z,44.50
2019-04-03T17:49:40.919Z,44.30
2019-04-03T17:52:07.307Z,45.10
2019-04-03T17:54:33.709Z,44.50
2019-04-03T17:57:00.109Z,44.50
2019-04-03T17:59:26.558Z,44.50
2019-04-03T18:01:53.043Z,44.00
2019-04-03T18:04:20.241Z,45.20
2019-04-03T18:06:47.184Z,44.80
2019-04-03T18:09:13.681Z,44.90
2019-04-03T18:11:42.653Z,45.40
2019-04-03T18:14:08.296Z,44.80
2019-04-03T18:16:34.792Z,44.60
2019-04-03T18:19:04.512Z,44.40
2019-04-03T18:21:29.447Z,45.20
2019-04-03T18:23:56.038Z,45.50
2019-04-03T18:26:22.484Z,45.30
2019-04-03T18:28:48.886Z,45.60
2019-04-03T18:31:15.299Z,46.00
2019-04-03T18:33:41.710Z,45.30
2019-04-03T18:36:08.189Z,46.00
2019-04-03T18:38:34.612Z,45.70
2019-04-03T18:41:03.899Z,45.30
2019-04-03T18:43:29.301Z,45.60
2019-04-03T18:45:56.437Z,45.50
2019-04-03T18:48:23.875Z,45.50
2019-04-03T18:50:50.270Z,45.10
2019-04-03T18:53:16.779Z,46.10
2019-04-03T18:55:45.353Z,46.00
2019-04-03T18:58:11.591Z,45.90
2019-04-03T19:00:38.002Z,44.80
2019-04-03T19:03:05.966Z,45.50
2019-04-03T19:05:32.691Z,45.00
2019-04-03T19:07:59.168Z,45.50
2019-04-03T19:10:25.742Z,44.40
2019-04-03T19:12:52.163Z,44.50
2019-04-03T19:15:19.188Z,44.60
2019-04-03T19:17:45.788Z,44.90
2019-04-03T19:20:12.279Z,44.50
2019-04-03T19:22:39.786Z,44.70
2019-04-03T19:25:06.850Z,44.20
2019-04-03T19:27:33.492Z,45.30
2019-04-03T19:30:00.060Z,43.90
2019-04-03T19:32:26.647Z,43.80
2019-04-03T19:34:53.227Z,44.60
2019-04-03T19:37:19.810Z,44.10
2019-04-03T19:39:46.193Z,44.50
2019-04-03T19:42:13.968Z,43.60
2019-04-03T19:44:41.716Z,43.60
2019-04-03T19:47:08.366Z,44.40
2019-04-03T19:49:34.967Z,46.10
2019-04-03T19:52:01.409Z,44.50
2019-04-03T19:54:29.063Z,44.20
2019-04-03T19:56:56.425Z,44.80
2019-04-03T19:59:23.447Z,44.00
2019-04-03T20:01:49.836Z,45.30
2019-04-03T20:04:16.381Z,45.80
2019-04-03T20:06:42.771Z,44.80
2019-04-03T20:09:09.238Z,44.70
2019-04-03T20:11:36.465Z,44.20
2019-04-03T20:14:04.216Z,45.40
2019-04-03T20:16:30.643Z,45.60
2019-04-03T20:18:57.085Z,45.30
2019-04-03T20:21:23.559Z,45.40
2019-04-03T20:23:50.154Z,44.40
2019-04-03T20:26:16.960Z,43.90
2019-04-03T20:28:43.501Z,44.40
2019-04-03T20:31:09.922Z,43.90
2019-04-03T20:33:36.309Z,44.40
2019-04-03T20:36:02.682Z,45.10
2019-04-03T20:38:29.151Z,45.10
2019-04-03T20:40:55.550Z,44.80
2019-04-03T20:43:22.011Z,44.70
2019-04-03T20:45:49.786Z,45.30
2019-04-03T20:48:16.566Z,44.80
2019-04-03T20:50:43.340Z,45.20
2019-04-03T20:53:09.846Z,45.10
2019-04-03T20:55:36.347Z,44.50
2019-04-03T20:58:05.856Z,44.80
2019-04-03T21:00:31.065Z,44.70
2019-04-03T21:02:57.584Z,44.20
2019-04-03T21:05:24.021Z,44.80
2019-04-03T21:07:50.992Z,44.80
2019-04-03T21:10:17.542Z,44.40
2019-04-03T21:12:43.895Z,44.90
2019-04-03T21:15:13.445Z,44.60
2019-04-03T21:17:38.456Z,44.40
2019-04-03T21:20:05.282Z,44.60
2019-04-03T21:22:31.737Z,44.80
2019-04-03T21:24:58.238Z,45.10
2019-04-03T21:27:24.665Z,44.40
2019-04-03T21:29:51.129Z,44.30
2019-04-03T21:32:17.490Z,44.90
2019-04-03T21:34:43.912Z,45.50
2019-04-03T21:37:10.294Z,44.10
2019-04-03T21:39:37.835Z,45.20
2019-04-03T21:42:04.208Z,45.80
2019-04-03T21:44:32.438Z,44.80
2019-04-03T21:46:59.028Z,45.50
2019-04-03T21:49:25.421Z,44.90
2019-04-03T21:51:52.406Z,45.60
2019-04-03T21:54:18.961Z,46.30
2019-04-03T21:56:45.435Z,47.60
2019-04-03T21:59:11.851Z,46.30
2019-04-03T22:01:38.364Z,45.80
2019-04-03T22:04:04.756Z,46.20
2019-04-03T22:06:31.182Z,45.60
2019-04-03T22:08:59.663Z,46.00
2019-04-03T22:11:25.841Z,46.90
2019-04-03T22:13:52.431Z,47.00
2019-04-03T22:16:20.392Z,46.20
2019-04-03T22:18:47.373Z,47.30
2019-04-03T22:21:15.223Z,46.50
2019-04-03T22:23:41.620Z,45.80
2019-04-03T22:26:09.792Z,47.80
2019-04-03T22:28:36.427Z,46.50
2019-04-03T22:31:04.232Z,47.30
2019-04-03T22:33:30.958Z,47.30
2019-04-03T22:35:57.682Z,47.40
2019-04-03T22:38:24.140Z,47.60
2019-04-03T22:40:50.599Z,48.00
2019-04-03T22:43:17.021Z,47.10
2019-04-03T22:45:43.602Z,48.10
2019-04-03T22:48:10.018Z,47.50
2019-04-03T22:50:36.522Z,47.20
2019-04-03T22:53:03.031Z,48.10
2019-04-03T22:55:29.510Z,47.60
2019-04-03T22:57:55.933Z,48.00
2019-04-03T23:00:23.927Z,47.60
2019-04-03T23:02:50.676Z,48.90
2019-04-03T23:05:17.761Z,47.10
2019-04-03T23:07:44.259Z,48.70
2019-04-03T23:10:10.712Z,47.90
2019-04-03T23:12:37.128Z,48.50
2019-04-03T23:15:05.123Z,48.30
2019-04-03T23:17:31.950Z,48.00
2019-04-03T23:19:58.425Z,48.10
2019-04-03T23:22:25.897Z,49.50
2019-04-03T23:24:53.005Z,48.80
2019-04-03T23:27:19.488Z,48.40
2019-04-03T23:29:46.126Z,48.20
2019-04-03T23:32:15.289Z,48.90
2019-04-03T23:34:40.931Z,48.30
2019-04-03T23:37:07.397Z,48.20
2019-04-03T23:39:33.792Z,48.40
2019-04-03T23:42:00.244Z,48.30
2019-04-03T23:44:26.669Z,48.30
2019-04-03T23:46:53.318Z,50.20
2019-04-03T23:49:20.800Z,49.90
2019-04-03T23:51:47.307Z,49.00
2019-04-03T23:54:13.759Z,48.80
2019-04-03T23:56:40.234Z,49.00
2019-04-03T23:59:06.737Z,49.50
